createdAt,value
2022-09-15T00:00:58.088Z,73.80
2022-09-15T00:03:24.858Z,73.19
2022-09-15T00:05:52.739Z,73.26
2022-09-15T00:08:19.166Z,72.82
2022-09-15T00:10:49.909Z,72.66
2022-09-15T00:13:16.989Z,72.93
2022-09-15T00:15:43.409Z,73.43
2022-09-15T00:18:10.092Z,73.38
2022-09-15T00:20:39.723Z,73.83
2022-09-15T00:23:06.157Z,74.61
2022-09-15T00:25:32.649Z,74.89
2022-09-15T00:27:59.546Z,75.16
2022-09-15T00:30:26.031Z,75.38
2022-09-15T00:32:52.642Z,75.62
2022-09-15T00:35:19.166Z,75.70
2022-09-15T00:37:45.614Z,75.47
2022-09-15T00:40:12.181Z,75.93
2022-09-15T00:42:38.650Z,76.00
2022-09-15T00:45:05.462Z,75.50
2022-09-15T00:47:35.208Z,75.26
2022-09-15T00:50:11.024Z,74.76
2022-09-15T00:52:44.175Z,74.36
2022-09-15T00:55:23.836Z,74.23
2022-09-15T00:57:59.696Z,74.35
2022-09-15T01:00:30.341Z,74.56
2022-09-15T01:02:57.305Z,74.68
2022-09-15T01:05:26.688Z,74.31
2022-09-15T01:08:01.730Z,74.62
2022-09-15T01:10:30.246Z,73.90
2022-09-15T01:12:57.865Z,73.95
2022-09-15T01:15:27.096Z,74.21
2022-09-15T01:18:02.606Z,73.90
2022-09-15T01:20:29.288Z,74.06
2022-09-15T01:23:22.176Z,74.25
2022-09-15T01:26:04.435Z,73.30
2022-09-15T01:28:36.999Z,73.45
2022-09-15T01:31:03.441Z,73.95
2022-09-15T01:33:32.883Z,73.17
2022-09-15T01:36:11.321Z,73.12
2022-09-15T01:38:42.544Z,73.36
2022-09-15T01:41:25.287Z,73.12
2022-09-15T01:43:51.834Z,72.70
2022-09-15T01:46:20.045Z,72.52
2022-09-15T01:48:47.970Z,72.47
2022-09-15T01:51:16.445Z,72.72
2022-09-15T01:53:43.330Z,72.74
2022-09-15T01:56:10.944Z,73.02
2022-09-15T01:58:38.745Z,72.24
2022-09-15T02:01:18.049Z,72.05
2022-09-15T02:03:48.794Z,71.97
2022-09-15T02:06:33.752Z,72.25
2022-09-15T02:09:02.961Z,71.45
2022-09-15T02:11:30.343Z,71.64
2022-09-15T02:13:56.829Z,72.14
2022-09-15T02:16:30.188Z,71.90
2022-09-15T02:18:58.063Z,72.27
2022-09-15T02:21:29.795Z,71.81
2022-09-15T02:24:03.404Z,72.26
2022-09-15T02:26:32.180Z,71.72
2022-09-15T02:28:59.931Z,72.36
2022-09-15T02:31:27.046Z,72.26
2022-09-15T02:33:57.378Z,73.30
2022-09-15T02:36:25.196Z,73.74
2022-09-15T02:38:58.126Z,73.92
2022-09-15T02:41:24.594Z,73.67
2022-09-15T02:43:51.227Z,74.19
2022-09-15T02:46:19.319Z,72.93
2022-09-15T02:48:45.853Z,72.91
2022-09-15T02:51:12.409Z,72.86
2022-09-15T02:53:38.875Z,73.04
2022-09-15T02:56:06.549Z,72.37
2022-09-15T02:58:33.409Z,72.19
2022-09-15T03:01:06.624Z,72.33
2022-09-15T03:03:33.578Z,72.16
2022-09-15T03:06:16.378Z,73.00
2022-09-15T03:08:51.225Z,72.84
2022-09-15T03:11:19.263Z,72.57
2022-09-15T03:13:46.315Z,72.59
2022-09-15T03:16:14.285Z,72.53
2022-09-15T03:18:41.376Z,72.30
2022-09-15T03:21:08.961Z,72.70
2022-09-15T03:23:36.047Z,72.49
2022-09-15T03:26:03.253Z,72.70
2022-09-15T03:28:29.968Z,72.32
2022-09-15T03:30:56.423Z,72.00
2022-09-15T03:33:23.557Z,71.58
2022-09-15T03:35:50.716Z,72.17
2022-09-15T03:38:17.657Z,74.38
2022-09-15T03:40:44.245Z,75.59
2022-09-15T03:43:14.282Z,76.39
2022-09-15T03:45:43.178Z,77.06
2022-09-15T03:48:09.645Z,77.09
2022-09-15T03:50:36.245Z,77.26
2022-09-15T03:53:02.871Z,76.25
2022-09-15T03:55:29.441Z,76.23
2022-09-15T03:57:55.879Z,75.54
2022-09-15T04:00:22.814Z,74.96
2022-09-15T04:02:49.284Z,74.74
2022-09-15T04:05:15.944Z,73.93
2022-09-15T04:07:42.476Z,73.14
2022-09-15T04:10:09.745Z,72.66
2022-09-15T04:12:36.378Z,72.83
2022-09-15T04:15:04.003Z,72.94
2022-09-15T04:17:30.525Z,73.17
2022-09-15T04:19:57.038Z,73.74
2022-09-15T04:22:23.885Z,74.67
2022-09-15T04:24:50.375Z,75.54
2022-09-15T04:27:17.187Z,75.16
2022-09-15T04:29:43.971Z,75.06
2022-09-15T04:32:10.621Z,75.03
2022-09-15T04:34:41.224Z,74.57
2022-09-15T04:37:07.946Z,74.81
2022-09-15T04:39:34.583Z,74.51
2022-09-15T04:42:05.097Z,74.21
2022-09-15T04:44:32.318Z,73.68
2022-09-15T04:46:59.393Z,73.31
2022-09-15T04:49:25.910Z,74.01
2022-09-15T04:51:53.733Z,74.04
2022-09-15T04:54:20.535Z,74.21
2022-09-15T04:56:47.396Z,74.26
2022-09-15T04:59:15.355Z,73.85
2022-09-15T05:01:42.110Z,73.92
2022-09-15T05:04:08.589Z,73.03
2022-09-15T05:06:35.350Z,73.61
2022-09-15T05:09:05.408Z,73.43
2022-09-15T05:11:35.753Z,72.87
2022-09-15T05:14:02.197Z,74.12
2022-09-15T05:16:29.506Z,74.68
2022-09-15T05:18:59.041Z,74.21
2022-09-15T05:21:26.119Z,74.41
2022-09-15T05:23:52.794Z,74.14
2022-09-15T05:26:21.487Z,74.01
2022-09-15T05:28:48.088Z,74.12
2022-09-15T05:31:22.045Z,75.23
2022-09-15T05:33:49.338Z,75.03
2022-09-15T05:36:17.333Z,75.07
2022-09-15T05:38:44.111Z,75.05
2022-09-15T05:41:12.115Z,75.26
2022-09-15T05:43:39.527Z,75.49
2022-09-15T05:46:06.699Z,75.50
2022-09-15T05:48:34.038Z,75.49
2022-09-15T05:51:00.634Z,75.01
2022-09-15T05:53:27.138Z,74.48
2022-09-15T05:55:57.457Z,74.50
2022-09-15T05:58:24.248Z,74.24
2022-09-15T06:00:50.996Z,73.69
2022-09-15T06:03:17.551Z,74.40
2022-09-15T06:05:44.072Z,74.16
2022-09-15T06:08:10.931Z,73.64
2022-09-15T06:10:37.445Z,74.24
2022-09-15T06:13:03.940Z,73.64
2022-09-15T06:15:30.933Z,73.75
2022-09-15T06:17:57.519Z,73.99
2022-09-15T06:20:25.429Z,73.54
2022-09-15T06:22:52.966Z,73.20
2022-09-15T06:25:19.570Z,72.75
2022-09-15T06:27:48.841Z,72.52
2022-09-15T06:30:15.481Z,72.64
2022-09-15T06:32:45.154Z,72.47
2022-09-15T06:35:15.156Z,72.34
2022-09-15T06:37:41.689Z,71.61
2022-09-15T06:40:08.525Z,71.73
2022-09-15T06:42:35.036Z,71.41
2022-09-15T06:45:01.820Z,71.53
2022-09-15T06:47:33.760Z,71.44
2022-09-15T06:50:00.723Z,71.82
2022-09-15T06:52:27.294Z,72.24
2022-09-15T06:54:53.777Z,71.57
2022-09-15T06:57:20.330Z,72.26
2022-09-15T06:59:48.378Z,72.76
2022-09-15T07:02:15.086Z,71.96
2022-09-15T07:04:41.701Z,71.98
2022-09-15T07:07:08.527Z,71.16
2022-09-15T07:09:35.064Z,69.99
2022-09-15T07:12:01.796Z,70.09
2022-09-15T07:14:28.352Z,69.38
2022-09-15T07:16:54.852Z,69.18
2022-09-15T07:19:21.404Z,68.97
2022-09-15T07:21:47.941Z,68.70
2022-09-15T07:24:14.948Z,68.11
2022-09-15T07:26:41.968Z,67.29
2022-09-15T07:29:09.713Z,67.16
2022-09-15T07:31:36.889Z,66.65
2022-09-15T07:34:04.085Z,66.01
2022-09-15T07:36:31.000Z,65.73
2022-09-15T07:38:57.526Z,65.31
2022-09-15T07:41:25.444Z,64.93
2022-09-15T07:43:52.957Z,64.66
2022-09-15T07:46:20.456Z,63.95
2022-09-15T07:48:47.761Z,63.80
2022-09-15T07:51:15.132Z,62.72
2022-09-15T07:53:41.981Z,63.54
2022-09-15T07:56:08.553Z,62.82
2022-09-15T07:58:35.063Z,62.47
2022-09-15T08:01:05.757Z,63.00
2022-09-15T08:03:32.382Z,62.88
2022-09-15T08:05:59.476Z,62.53
2022-09-15T08:08:25.974Z,63.07
2022-09-15T08:10:52.923Z,62.85
2022-09-15T08:13:19.520Z,62.59
2022-09-15T08:15:46.415Z,62.85
2022-09-15T08:18:12.923Z,63.10
2022-09-15T08:20:40.511Z,62.63
2022-09-15T08:23:07.871Z,62.05
2022-09-15T08:25:34.367Z,61.54
2022-09-15T08:28:01.227Z,61.03
2022-09-15T08:30:27.938Z,60.45
2022-09-15T08:32:54.370Z,59.97
2022-09-15T08:35:20.987Z,59.85
2022-09-15T08:37:47.515Z,59.27
2022-09-15T08:40:19.770Z,59.38
2022-09-15T08:42:48.290Z,58.55
2022-09-15T08:45:25.957Z,58.44
2022-09-15T08:47:56.274Z,58.41
2022-09-15T08:50:28.349Z,57.39
2022-09-15T08:53:18.091Z,57.55
2022-09-15T08:56:11.215Z,57.42
2022-09-15T08:58:37.936Z,57.26
2022-09-15T09:01:10.613Z,56.94
2022-09-15T09:03:56.677Z,56.45
2022-09-15T09:06:38.320Z,57.15
2022-09-15T09:09:04.981Z,55.22
2022-09-15T09:11:34.467Z,55.42
2022-09-15T09:14:14.050Z,55.56
2022-09-15T09:16:40.464Z,54.26
2022-09-15T09:19:16.148Z,53.73
2022-09-15T09:21:47.085Z,53.05
2022-09-15T09:24:13.505Z,51.89
2022-09-15T09:26:40.301Z,52.33
2022-09-15T09:29:13.578Z,51.43
2022-09-15T09:31:40.821Z,52.43
2022-09-15T09:34:07.271Z,52.90
2022-09-15T09:36:33.839Z,53.12
2022-09-15T09:39:01.838Z,53.02
2022-09-15T09:41:35.727Z,52.82
2022-09-15T09:44:03.819Z,52.43
2022-09-15T09:46:31.579Z,51.92
2022-09-15T09:49:03.217Z,51.84
2022-09-15T09:51:31.292Z,51.04
2022-09-15T09:54:03.780Z,49.82
2022-09-15T09:56:30.240Z,49.15
2022-09-15T09:58:56.976Z,48.53
2022-09-15T10:01:25.029Z,49.22
2022-09-15T10:04:14.944Z,48.65
2022-09-15T10:06:41.594Z,49.23
2022-09-15T10:09:16.259Z,49.77
2022-09-15T10:11:42.733Z,49.24
2022-09-15T10:14:19.846Z,47.48
2022-09-15T10:16:56.409Z,47.52
2022-09-15T10:19:23.345Z,47.89
2022-09-15T10:21:50.043Z,47.66
2022-09-15T10:24:36.388Z,47.65
2022-09-15T10:27:27.079Z,47.92
2022-09-15T10:29:54.085Z,48.08
2022-09-15T10:32:28.569Z,47.37
2022-09-15T10:34:59.079Z,47.00
2022-09-15T10:37:35.954Z,46.86
2022-09-15T10:40:25.453Z,46.01
2022-09-15T10:42:53.662Z,45.25
2022-09-15T10:45:33.497Z,44.16
2022-09-15T10:48:16.339Z,43.46
2022-09-15T10:50:55.175Z,42.20
2022-09-15T10:53:32.884Z,42.22
2022-09-15T10:56:05.400Z,41.53
2022-09-15T10:58:43.527Z,42.10
2022-09-15T11:01:30.272Z,40.90
2022-09-15T11:04:15.288Z,36.28
2022-09-15T11:06:48.773Z,33.96
2022-09-15T11:09:27.322Z,30.30
2022-09-15T11:11:56.845Z,26.52
2022-09-15T11:14:44.778Z,25.07
2022-09-15T11:17:24.097Z,22.43
2022-09-15T11:19:53.905Z,19.25
2022-09-15T11:22:24.580Z,17.59
2022-09-15T11:24:57.808Z,19.50
2022-09-15T11:27:31.339Z,23.66
2022-09-15T11:30:01.285Z,26.54
2022-09-15T11:32:34.296Z,29.40
2022-09-15T11:35:16.391Z,32.26
2022-09-15T11:37:45.810Z,30.55
2022-09-15T11:40:15.854Z,25.78
2022-09-15T11:42:47.970Z,22.92
2022-09-15T11:45:17.667Z,19.31
2022-09-15T11:47:46.882Z,17.89
2022-09-15T11:50:19.804Z,17.81
2022-09-15T11:52:58.608Z,17.95
2022-09-15T11:55:37.638Z,20.95
2022-09-15T11:58:21.625Z,20.25
2022-09-15T12:01:04.241Z,18.43
2022-09-15T12:03:50.608Z,20.50
2022-09-15T12:06:21.543Z,20.29
2022-09-15T12:09:00.788Z,20.72
2022-09-15T12:11:30.307Z,22.59
2022-09-15T12:13:57.371Z,21.42
2022-09-15T12:16:24.297Z,20.60
2022-09-15T12:18:53.843Z,23.85
2022-09-15T12:21:31.215Z,24.61
2022-09-15T12:24:02.782Z,25.60
2022-09-15T12:26:32.619Z,27.85
2022-09-15T12:29:03.558Z,28.39
2022-09-15T12:31:31.728Z,29.25
2022-09-15T12:33:59.752Z,30.98
2022-09-15T12:36:30.843Z,32.28
2022-09-15T12:38:58.483Z,32.14
2022-09-15T12:41:25.180Z,33.76
2022-09-15T12:44:17.800Z,34.65
2022-09-15T12:46:50.774Z,35.38
2022-09-15T12:49:20.239Z,37.86
2022-09-15T12:51:50.802Z,37.12
2022-09-15T12:54:21.842Z,37.80
2022-09-15T12:56:51.932Z,38.15
2022-09-15T12:59:22.780Z,38.00
2022-09-15T13:01:50.378Z,38.08
2022-09-15T13:04:35.728Z,37.29
2022-09-15T13:07:28.654Z,35.94
2022-09-15T13:10:13.462Z,35.33
2022-09-15T13:12:43.446Z,36.73
2022-09-15T13:15:14.596Z,36.25
2022-09-15T13:17:44.296Z,36.73
2022-09-15T13:20:15.509Z,35.75
2022-09-15T13:22:45.476Z,37.74
2022-09-15T13:25:15.670Z,36.25
2022-09-15T13:27:43.714Z,37.47
2022-09-15T13:30:30.963Z,35.92
2022-09-15T13:33:16.460Z,35.48
2022-09-15T13:35:52.423Z,35.74
2022-09-15T13:38:31.931Z,35.17
2022-09-15T13:41:18.258Z,34.65
2022-09-15T13:43:59.626Z,33.70
2022-09-15T13:46:35.399Z,34.56
2022-09-15T13:49:14.476Z,33.64
2022-09-15T13:51:43.616Z,33.76
2022-09-15T13:54:18.823Z,34.43
2022-09-15T13:56:47.350Z,33.01
2022-09-15T13:59:19.588Z,33.69
2022-09-15T14:01:46.582Z,33.21
2022-09-15T14:04:17.736Z,34.32
2022-09-15T14:06:45.836Z,34.97
2022-09-15T14:09:15.224Z,35.09
2022-09-15T14:11:42.829Z,35.81
2022-09-15T14:14:27.571Z,35.40
2022-09-15T14:16:55.073Z,36.11
2022-09-15T14:19:21.619Z,36.29
2022-09-15T14:21:53.834Z,35.52
2022-09-15T14:24:26.993Z,35.08
2022-09-15T14:26:53.518Z,33.43
2022-09-15T14:29:21.609Z,33.89
2022-09-15T14:31:49.082Z,34.40
2022-09-15T14:34:21.018Z,34.52
2022-09-15T14:36:58.279Z,34.72
2022-09-15T14:39:24.763Z,34.33
2022-09-15T14:41:51.428Z,34.75
2022-09-15T14:47:21.766Z,35.01
2022-09-15T14:49:49.012Z,35.06
2022-09-15T14:52:27.205Z,34.12
2022-09-15T14:54:56.781Z,34.76
2022-09-15T14:57:28.726Z,34.65
2022-09-15T14:59:59.804Z,34.91
2022-09-15T15:02:35.624Z,35.04
2022-09-15T15:05:08.683Z,34.84
2022-09-15T15:07:37.374Z,34.00
2022-09-15T15:10:06.087Z,35.51
2022-09-15T15:12:52.324Z,34.69
2022-09-15T15:15:18.925Z,35.01
2022-09-15T15:17:49.383Z,35.28
2022-09-15T15:20:16.021Z,36.39
2022-09-15T15:22:43.396Z,36.09
2022-09-15T15:25:23.740Z,36.98
2022-09-15T15:27:54.901Z,36.45
2022-09-15T15:30:35.249Z,36.52
2022-09-15T15:33:03.705Z,36.58
2022-09-15T15:35:30.783Z,36.58
2022-09-15T15:38:03.310Z,37.11
2022-09-15T15:40:30.095Z,37.58
2022-09-15T15:43:00.885Z,37.16
2022-09-15T15:45:29.755Z,36.49
2022-09-15T15:47:56.572Z,37.34
2022-09-15T15:50:24.756Z,37.34
2022-09-15T15:52:52.054Z,37.39
2022-09-15T15:55:22.789Z,37.70
2022-09-15T15:57:51.093Z,38.10
2022-09-15T16:00:21.303Z,38.35
2022-09-15T16:02:48.284Z,38.47
2022-09-15T16:05:14.988Z,38.86
2022-09-15T16:07:42.670Z,38.56
2022-09-15T16:10:14.653Z,38.61
2022-09-15T16:12:41.167Z,38.74
2022-09-15T16:15:15.340Z,38.47
2022-09-15T16:17:45.980Z,38.54
2022-09-15T16:20:15.978Z,38.42
2022-09-15T16:22:43.278Z,38.93
2022-09-15T16:25:17.812Z,39.62
2022-09-15T16:27:45.367Z,39.91
2022-09-15T16:30:14.919Z,39.46
2022-09-15T16:32:41.505Z,39.51
2022-09-15T16:35:31.488Z,39.79
2022-09-15T16:37:57.992Z,39.57
2022-09-15T16:40:24.631Z,39.90
2022-09-15T16:42:51.276Z,39.91
2022-09-15T16:45:23.233Z,39.76
2022-09-15T16:47:49.727Z,39.83
2022-09-15T16:50:16.283Z,40.02
2022-09-15T16:52:42.784Z,40.39
2022-09-15T16:55:20.441Z,40.96
2022-09-15T16:57:46.975Z,40.54
2022-09-15T17:00:13.788Z,40.82
2022-09-15T17:02:40.357Z,41.59
2022-09-15T17:05:15.421Z,41.56
2022-09-15T17:07:42.106Z,41.16
2022-09-15T17:10:08.650Z,41.23
2022-09-15T17:12:36.254Z,41.64
2022-09-15T17:15:02.876Z,41.86
2022-09-15T17:17:29.311Z,41.90
2022-09-15T17:19:55.722Z,42.34
2022-09-15T17:22:23.263Z,41.86
2022-09-15T17:24:49.723Z,41.98
2022-09-15T17:27:16.288Z,42.00
2022-09-15T17:29:42.753Z,42.28
2022-09-15T17:32:09.219Z,42.82
2022-09-15T17:34:38.002Z,42.58
2022-09-15T17:37:04.462Z,43.33
2022-09-15T17:39:33.537Z,43.58
2022-09-15T17:41:59.987Z,43.63
2022-09-15T17:44:26.471Z,43.84
2022-09-15T17:46:53.159Z,43.91
2022-09-15T17:49:19.689Z,43.87
2022-09-15T17:51:46.123Z,43.85
2022-09-15T17:54:13.279Z,43.59
2022-09-15T17:56:39.762Z,44.37
2022-09-15T17:59:06.345Z,43.70
2022-09-15T18:01:32.937Z,44.35
2022-09-15T18:03:59.455Z,44.55
2022-09-15T18:06:25.949Z,44.37
2022-09-15T18:08:52.524Z,44.51
2022-09-15T18:11:19.250Z,44.22
2022-09-15T18:13:45.903Z,44.55
2022-09-15T18:16:13.761Z,45.07
2022-09-15T18:18:40.990Z,44.81
2022-09-15T18:21:09.534Z,45.13
2022-09-15T18:23:37.505Z,45.00
2022-09-15T18:26:03.999Z,45.47
2022-09-15T18:28:30.515Z,44.60
2022-09-15T18:30:57.195Z,45.07
2022-09-15T18:33:24.505Z,45.09
2022-09-15T18:35:52.286Z,44.94
2022-09-15T18:38:19.232Z,44.95
2022-09-15T18:40:46.959Z,44.42
2022-09-15T18:43:13.553Z,44.14
2022-09-15T18:45:40.569Z,44.71
2022-09-15T18:48:11.924Z,44.61
2022-09-15T18:50:39.871Z,44.54
2022-09-15T18:53:06.516Z,44.49
2022-09-15T18:55:32.995Z,44.87
2022-09-15T18:58:01.185Z,45.29
2022-09-15T19:00:28.676Z,45.48
2022-09-15T19:02:59.410Z,45.82
2022-09-15T19:05:27.327Z,45.84
2022-09-15T19:07:54.036Z,45.72
2022-09-15T19:10:20.546Z,45.88
2022-09-15T19:12:47.106Z,45.53
2022-09-15T19:15:14.055Z,45.68
2022-09-15T19:17:40.844Z,45.99
2022-09-15T19:20:08.439Z,45.84
2022-09-15T19:22:35.292Z,46.49
2022-09-15T19:25:01.737Z,46.33
2022-09-15T19:27:28.284Z,46.26
2022-09-15T19:29:54.829Z,46.53
2022-09-15T19:32:22.126Z,46.51
2022-09-15T19:34:50.090Z,46.58
2022-09-15T19:37:18.945Z,46.93
2022-09-15T19:39:46.452Z,47.23
2022-09-15T19:42:13.307Z,47.01
2022-09-15T19:44:41.110Z,47.05
2022-09-15T19:47:07.757Z,47.80
2022-09-15T19:49:34.413Z,47.59
2022-09-15T19:52:00.961Z,48.17
2022-09-15T19:54:28.762Z,48.44
2022-09-15T19:56:56.097Z,48.48
2022-09-15T19:59:26.289Z,48.28
2022-09-15T20:01:55.370Z,48.93
2022-09-15T20:04:21.964Z,48.77
2022-09-15T20:06:48.632Z,50.07
2022-09-15T20:09:15.233Z,49.39
2022-09-15T20:11:41.824Z,50.58
2022-09-15T20:14:08.362Z,50.93
2022-09-15T20:16:35.136Z,51.42
2022-09-15T20:19:03.696Z,51.20
2022-09-15T20:21:49.418Z,51.54
2022-09-15T20:24:17.139Z,51.27
2022-09-15T20:26:43.723Z,50.46
2022-09-15T20:29:10.462Z,50.56
2022-09-15T20:31:36.932Z,50.37
2022-09-15T20:34:03.517Z,50.19
2022-09-15T20:36:33.152Z,50.41
2022-09-15T20:39:00.620Z,50.21
2022-09-15T20:41:28.412Z,50.10
2022-09-15T20:43:55.187Z,49.84
2022-09-15T20:46:22.528Z,49.70
2022-09-15T20:48:50.136Z,49.16
2022-09-15T20:51:20.156Z,49.06
2022-09-15T20:53:47.642Z,49.55
2022-09-15T20:56:14.855Z,49.28
2022-09-15T20:58:41.642Z,49.64
2022-09-15T21:01:09.851Z,49.24
2022-09-15T21:03:37.329Z,49.41
2022-09-15T21:06:05.379Z,48.81
2022-09-15T21:08:32.234Z,48.81
2022-09-15T21:10:59.379Z,48.78
2022-09-15T21:13:29.993Z,47.81
2022-09-15T21:15:58.368Z,48.12
2022-09-15T21:18:25.723Z,47.99
2022-09-15T21:20:56.319Z,47.96
2022-09-15T21:23:23.030Z,47.56
2022-09-15T21:26:01.679Z,47.75
2022-09-15T21:28:28.760Z,47.86
2022-09-15T21:31:06.079Z,48.05
2022-09-15T21:33:32.991Z,48.35
2022-09-15T21:36:03.529Z,47.74
2022-09-15T21:38:30.124Z,47.96
2022-09-15T21:40:56.558Z,47.18
2022-09-15T21:43:23.089Z,47.50
2022-09-15T21:45:54.379Z,47.70
2022-09-15T21:48:21.045Z,47.83
2022-09-15T21:50:51.389Z,47.73
2022-09-15T21:53:20.111Z,47.65
2022-09-15T21:55:52.833Z,47.49
2022-09-15T21:58:19.971Z,47.43
2022-09-15T22:00:47.203Z,47.16
2022-09-15T22:03:14.056Z,46.95
2022-09-15T22:05:41.015Z,47.24
2022-09-15T22:08:08.776Z,47.60
2022-09-15T22:10:35.615Z,47.01
2022-09-15T22:13:02.117Z,47.38
2022-09-15T22:15:28.585Z,47.54
2022-09-15T22:17:55.018Z,47.65
2022-09-15T22:20:22.410Z,47.74
2022-09-15T22:22:48.919Z,47.36
2022-09-15T22:25:19.790Z,47.30
2022-09-15T22:27:48.227Z,47.59
2022-09-15T22:30:14.701Z,47.42
2022-09-15T22:32:41.236Z,47.73
2022-09-15T22:35:07.846Z,47.51
2022-09-15T22:37:34.596Z,47.61
2022-09-15T22:40:01.158Z,47.69
2022-09-15T22:42:27.911Z,48.08
2022-09-15T22:44:54.301Z,48.46
2022-09-15T22:47:20.760Z,48.22
2022-09-15T22:49:47.196Z,48.59
2022-09-15T22:52:13.594Z,48.50
2022-09-15T22:54:40.021Z,48.81
2022-09-15T22:57:07.157Z,48.29
2022-09-15T22:59:33.643Z,48.32
2022-09-15T23:02:00.285Z,48.98
2022-09-15T23:04:27.118Z,48.84
2022-09-15T23:06:53.571Z,49.41
2022-09-15T23:09:19.987Z,49.71
2022-09-15T23:11:46.410Z,49.78
2022-09-15T23:14:15.206Z,49.37
2022-09-15T23:16:42.656Z,49.46
2022-09-15T23:19:11.304Z,49.70
2022-09-15T23:21:37.735Z,49.28
2022-09-15T23:24:04.349Z,49.00
2022-09-15T23:26:30.929Z,49.31
2022-09-15T23:28:57.365Z,49.23
2022-09-15T23:31:23.839Z,49.21
2022-09-15T23:33:50.610Z,49.59
2022-09-15T23:36:21.161Z,49.75
2022-09-15T23:38:48.317Z,49.04
2022-09-15T23:41:15.802Z,48.96
2022-09-15T23:43:42.258Z,48.46
2022-09-15T23:46:08.779Z,48.11
2022-09-15T23:48:35.429Z,48.45
2022-09-15T23:51:02.384Z,48.72
2022-09-15T23:53:29.342Z,48.67
2022-09-15T23:55:56.109Z,48.53
2022-09-15T23:58:22.588Z,48.56
